Clallam Bay, Washington
Current Conditions -  °F | °C
As of 7:53 AM on Saturday 25 Oct 2014 (Local Time) from KUIL Reporting Station
Light Rain Light Rain  
Wind Chill: 55°   Ceiling: 8000
Heat Index: 55°   Visibility: 7mi
Dew Point: 52°   Wind: 10mph
Humidity: 89%   Direction: 120°ESE
Pressure: 29.36"   Gusts: 21mph
Location:  48.25°N, 124.26°W
Report Text: KUIL 251453Z AUTO 12009G18KT 7SM -RA OVC080 13/11 A2936 RMK AO2 RAB04 SLP941 P0002 60005 T01280111 58020
Loading
Personal Weather Stations






























Interactive Weather Map
Tropical Storm Tracking
New forecast layout! Learn more

10-Day Weather Forecast

Advertisements
Track Severe Weather on mobile